createdAt,value
2022-10-13T00:00:54.235Z,2.70
2022-10-13T00:03:03.543Z,3.03
2022-10-13T00:05:12.715Z,3.20
2022-10-13T00:07:22.942Z,2.47
2022-10-13T00:09:31.734Z,2.27
2022-10-13T00:11:42.442Z,2.07
2022-10-13T00:13:55.032Z,1.90
2022-10-13T00:16:05.165Z,2.20
2022-10-13T00:18:14.288Z,2.23
2022-10-13T00:20:23.016Z,2.37
2022-10-13T00:22:32.601Z,2.17
2022-10-13T00:24:41.584Z,1.80
2022-10-13T00:26:53.905Z,2.20
2022-10-13T00:29:02.561Z,2.10
2022-10-13T00:31:18.942Z,2.33
2022-10-13T00:33:27.760Z,2.10
2022-10-13T00:35:40.130Z,2.40
2022-10-13T00:37:48.999Z,2.43
2022-10-13T00:40:00.232Z,2.70
2022-10-13T00:42:13.432Z,2.17
2022-10-13T00:44:40.472Z,2.20
2022-10-13T00:46:49.475Z,2.40
2022-10-13T00:48:58.861Z,2.23
2022-10-13T00:51:07.821Z,2.20
2022-10-13T00:53:17.100Z,2.40
2022-10-13T00:55:29.822Z,2.37
2022-10-13T00:57:41.176Z,2.30
2022-10-13T00:59:50.878Z,1.90
2022-10-13T01:02:08.152Z,1.50
2022-10-13T01:04:17.481Z,1.70
2022-10-13T01:06:29.456Z,1.70
2022-10-13T01:08:38.568Z,1.60
2022-10-13T01:10:53.079Z,1.60
2022-10-13T01:13:07.108Z,1.60
2022-10-13T01:15:19.002Z,1.73
2022-10-13T01:17:33.071Z,1.53
2022-10-13T01:20:03.200Z,1.77
2022-10-13T01:22:20.454Z,1.83
2022-10-13T01:24:34.199Z,1.80
2022-10-13T01:27:00.412Z,1.60
2022-10-13T01:29:31.749Z,1.73
2022-10-13T01:31:47.138Z,1.50
2022-10-13T01:33:58.143Z,1.63
2022-10-13T01:36:12.260Z,1.50
2022-10-13T01:38:29.248Z,1.60
2022-10-13T01:40:42.262Z,1.70
2022-10-13T01:42:57.317Z,2.00
2022-10-13T01:45:10.465Z,2.10
2022-10-13T01:47:21.375Z,1.93
2022-10-13T01:49:33.789Z,1.97
2022-10-13T01:51:44.954Z,1.60
2022-10-13T01:53:53.574Z,1.50
2022-10-13T01:56:03.173Z,1.60
2022-10-13T01:58:17.343Z,1.47
2022-10-13T02:00:29.538Z,1.50
2022-10-13T02:02:46.102Z,1.37
2022-10-13T02:04:59.413Z,1.80
2022-10-13T02:07:13.571Z,1.90
2022-10-13T02:09:27.950Z,2.33
2022-10-13T02:11:36.997Z,1.60
2022-10-13T02:13:47.553Z,1.80
2022-10-13T02:15:58.224Z,1.53
2022-10-13T02:18:09.607Z,1.83
2022-10-13T02:20:19.138Z,1.77
2022-10-13T02:22:33.764Z,1.90
2022-10-13T02:24:44.156Z,1.90
2022-10-13T02:26:53.317Z,1.93
2022-10-13T02:29:04.130Z,1.73
2022-10-13T02:31:16.148Z,1.97
2022-10-13T02:33:26.334Z,1.93
2022-10-13T02:35:35.864Z,1.80
2022-10-13T02:37:44.900Z,1.93
2022-10-13T02:39:53.851Z,1.93
2022-10-13T02:42:02.881Z,1.90
2022-10-13T02:44:11.840Z,2.30
2022-10-13T02:46:20.455Z,1.87
2022-10-13T02:48:32.430Z,2.10
2022-10-13T02:50:41.408Z,1.60
2022-10-13T02:52:53.535Z,2.13
2022-10-13T02:55:02.156Z,2.10
2022-10-13T02:57:10.796Z,1.90
2022-10-13T02:59:19.351Z,1.90
2022-10-13T03:01:29.582Z,1.77
2022-10-13T03:03:45.211Z,2.13
2022-10-13T03:05:54.071Z,1.97
2022-10-13T03:08:03.120Z,1.93
2022-10-13T03:10:12.176Z,2.10
2022-10-13T03:12:21.531Z,2.10
2022-10-13T03:14:32.567Z,2.10
2022-10-13T03:16:41.221Z,2.00
2022-10-13T03:18:52.014Z,2.20
2022-10-13T03:21:01.655Z,2.43
2022-10-13T03:23:10.534Z,2.30
2022-10-13T03:25:19.463Z,2.30
2022-10-13T03:27:28.592Z,2.17
2022-10-13T03:29:37.837Z,2.57
2022-10-13T03:31:49.774Z,2.47
2022-10-13T03:34:02.159Z,1.97
2022-10-13T03:36:11.112Z,2.30
2022-10-13T03:38:20.056Z,2.40
2022-10-13T03:40:31.102Z,2.33
2022-10-13T03:42:40.338Z,2.80
2022-10-13T03:44:55.341Z,2.07
2022-10-13T03:47:05.373Z,2.60
2022-10-13T03:49:15.810Z,2.27
2022-10-13T03:51:24.984Z,2.40
2022-10-13T03:53:33.720Z,4.57
2022-10-13T03:55:42.316Z,2.50
2022-10-13T03:57:52.455Z,2.67
2022-10-13T04:00:01.750Z,2.43
2022-10-13T04:02:10.655Z,2.60
2022-10-13T04:04:21.324Z,2.20
2022-10-13T04:06:32.361Z,2.83
2022-10-13T04:08:41.457Z,2.27
2022-10-13T04:10:50.481Z,2.60
2022-10-13T04:13:00.010Z,2.60
2022-10-13T04:15:09.636Z,2.97
2022-10-13T04:17:18.181Z,2.40
2022-10-13T04:19:28.548Z,2.70
2022-10-13T04:21:37.829Z,2.30
2022-10-13T04:23:47.159Z,2.50
2022-10-13T04:25:56.624Z,2.27
2022-10-13T04:28:05.448Z,2.67
2022-10-13T04:30:14.581Z,2.63
2022-10-13T04:32:23.506Z,2.77
2022-10-13T04:34:33.535Z,2.50
2022-10-13T04:36:43.979Z,2.87
2022-10-13T04:38:53.255Z,3.10
2022-10-13T04:41:04.640Z,2.47
2022-10-13T04:43:13.480Z,2.90
2022-10-13T04:45:22.004Z,2.90
2022-10-13T04:47:36.125Z,2.67
2022-10-13T04:49:47.428Z,2.97
2022-10-13T04:51:57.582Z,2.40
2022-10-13T04:54:06.867Z,2.43
2022-10-13T04:56:17.197Z,2.87
2022-10-13T04:58:28.565Z,2.73
2022-10-13T05:00:37.402Z,2.87
2022-10-13T05:02:46.107Z,3.03
2022-10-13T05:05:08.623Z,2.83
2022-10-13T05:07:18.543Z,2.67
2022-10-13T05:09:27.783Z,3.10
2022-10-13T05:11:36.516Z,2.80
2022-10-13T05:13:46.172Z,2.90
2022-10-13T05:15:55.068Z,2.80
2022-10-13T05:18:06.756Z,3.00
2022-10-13T05:20:18.368Z,3.23
2022-10-13T05:22:27.376Z,3.13
2022-10-13T05:24:37.859Z,2.60
2022-10-13T05:26:46.669Z,2.47
2022-10-13T05:28:55.199Z,3.27
2022-10-13T05:31:14.496Z,2.83
2022-10-13T05:33:23.177Z,2.93
2022-10-13T05:35:33.104Z,3.00
2022-10-13T05:37:42.308Z,3.00
2022-10-13T05:39:51.997Z,3.20
2022-10-13T05:42:01.170Z,3.47
2022-10-13T05:44:10.755Z,3.50
2022-10-13T05:46:19.383Z,4.27
2022-10-13T05:48:28.020Z,3.30
2022-10-13T05:50:38.375Z,3.90
2022-10-13T05:52:47.723Z,3.57
2022-10-13T05:54:57.600Z,3.63
2022-10-13T05:57:07.598Z,4.00
2022-10-13T05:59:17.894Z,4.00
2022-10-13T06:01:27.368Z,4.30
2022-10-13T06:03:36.821Z,4.23
2022-10-13T06:05:48.647Z,3.93
2022-10-13T06:07:58.476Z,4.03
2022-10-13T06:10:07.713Z,4.07
2022-10-13T06:12:16.483Z,4.23
2022-10-13T06:14:25.295Z,4.47
2022-10-13T06:16:34.593Z,3.80
2022-10-13T06:18:43.718Z,4.47
2022-10-13T06:20:54.414Z,4.67
2022-10-13T06:23:03.376Z,4.50
2022-10-13T06:25:12.519Z,4.33
2022-10-13T06:27:21.430Z,4.03
2022-10-13T06:29:30.075Z,4.47
2022-10-13T06:31:38.649Z,4.30
2022-10-13T06:33:47.567Z,4.83
2022-10-13T06:35:57.844Z,4.60
2022-10-13T06:38:06.508Z,4.87
2022-10-13T06:40:15.277Z,4.30
2022-10-13T06:42:24.382Z,4.27
2022-10-13T06:44:33.088Z,4.30
2022-10-13T06:46:41.823Z,4.30
2022-10-13T06:48:52.048Z,4.63
2022-10-13T06:51:05.301Z,4.97
2022-10-13T06:53:14.213Z,4.30
2022-10-13T06:55:23.446Z,4.50
2022-10-13T06:57:32.087Z,3.93
2022-10-13T06:59:40.704Z,4.87
2022-10-13T07:01:51.867Z,5.70
2022-10-13T07:04:00.848Z,4.03
2022-10-13T07:06:11.767Z,3.83
2022-10-13T07:08:20.910Z,4.00
2022-10-13T07:10:29.502Z,4.00
2022-10-13T07:12:38.429Z,4.07
2022-10-13T07:14:47.432Z,4.57
2022-10-13T07:16:56.133Z,4.30
2022-10-13T07:19:05.066Z,3.87
2022-10-13T07:21:15.044Z,4.00
2022-10-13T07:23:23.724Z,3.90
2022-10-13T07:25:32.728Z,3.97
2022-10-13T07:27:42.502Z,4.27
2022-10-13T07:29:51.684Z,4.67
2022-10-13T07:32:00.257Z,3.90
2022-10-13T07:34:09.517Z,4.00
2022-10-13T07:36:20.958Z,3.90
2022-10-13T07:38:29.790Z,3.90
2022-10-13T07:40:38.241Z,3.60
2022-10-13T07:42:46.728Z,3.70
2022-10-13T07:44:55.957Z,4.07
2022-10-13T07:47:04.534Z,3.57
2022-10-13T07:49:16.068Z,3.80
2022-10-13T07:51:27.083Z,3.57
2022-10-13T07:53:36.873Z,3.43
2022-10-13T07:55:47.541Z,3.83
2022-10-13T07:57:56.761Z,3.77
2022-10-13T08:00:07.023Z,3.73
2022-10-13T08:02:16.005Z,3.90
2022-10-13T08:04:25.718Z,3.47
2022-10-13T08:06:35.975Z,3.70
2022-10-13T08:08:44.539Z,3.93
2022-10-13T08:13:07.742Z,3.80
2022-10-13T08:15:16.779Z,3.80
2022-10-13T08:17:25.732Z,3.60
2022-10-13T08:19:34.264Z,4.00
2022-10-13T08:22:01.803Z,3.40
2022-10-13T08:24:13.433Z,3.80
2022-10-13T08:26:26.179Z,3.93
2022-10-13T08:28:37.854Z,3.53
2022-10-13T08:30:47.129Z,3.30
2022-10-13T08:32:55.990Z,3.47
2022-10-13T08:35:04.779Z,3.80
2022-10-13T08:37:16.907Z,4.20
2022-10-13T08:39:26.421Z,3.40
2022-10-13T08:41:38.234Z,3.70
2022-10-13T08:44:24.693Z,2.97
2022-10-13T08:46:19.776Z,3.53
2022-10-13T08:48:30.110Z,3.30
2022-10-13T08:50:41.207Z,3.53
2022-10-13T08:52:52.403Z,3.40
2022-10-13T08:55:00.882Z,3.30
2022-10-13T08:57:11.086Z,3.07
2022-10-13T08:59:21.802Z,3.03
2022-10-13T09:01:31.694Z,3.27
2022-10-13T09:03:45.165Z,3.10
2022-10-13T09:06:00.476Z,3.00
2022-10-13T09:08:11.517Z,2.80
2022-10-13T09:10:20.410Z,3.00
2022-10-13T09:12:31.633Z,2.77
2022-10-13T09:14:41.240Z,2.67
2022-10-13T09:16:50.347Z,2.80
2022-10-13T09:19:14.154Z,2.80
2022-10-13T09:21:24.662Z,3.07
2022-10-13T09:23:38.216Z,3.03
2022-10-13T09:25:51.006Z,3.13
2022-10-13T09:28:00.861Z,2.37
2022-10-13T09:30:25.944Z,3.03
2022-10-13T09:32:37.888Z,2.77
2022-10-13T09:34:47.746Z,2.63
2022-10-13T09:37:00.419Z,2.43
2022-10-13T09:39:23.936Z,2.73
2022-10-13T09:41:33.218Z,2.40
2022-10-13T09:43:43.706Z,2.30
2022-10-13T09:45:52.403Z,2.20
2022-10-13T09:48:03.832Z,3.07
2022-10-13T09:50:18.611Z,2.53
2022-10-13T09:52:28.010Z,2.43
2022-10-13T09:54:44.293Z,2.60
2022-10-13T09:56:55.498Z,2.63
2022-10-13T09:59:10.091Z,2.43
2022-10-13T10:01:22.145Z,2.37
2022-10-13T10:03:32.568Z,2.60
2022-10-13T10:05:45.307Z,2.20
2022-10-13T10:07:54.527Z,2.50
2022-10-13T10:10:09.517Z,2.30
2022-10-13T10:12:24.244Z,2.10
2022-10-13T10:14:39.654Z,2.00
2022-10-13T10:16:51.792Z,2.23
2022-10-13T10:19:04.191Z,2.00
2022-10-13T10:21:14.940Z,1.70
2022-10-13T10:23:27.958Z,2.17
2022-10-13T10:25:41.901Z,2.30
2022-10-13T10:27:54.593Z,1.93
2022-10-13T10:30:06.468Z,2.07
2022-10-13T10:32:24.338Z,2.23
2022-10-13T10:34:44.649Z,2.10
2022-10-13T10:36:55.759Z,2.17
2022-10-13T10:39:08.687Z,1.90
2022-10-13T10:41:26.791Z,1.93
2022-10-13T10:43:42.014Z,2.10
2022-10-13T10:45:51.151Z,1.80
2022-10-13T10:48:01.907Z,1.97
2022-10-13T10:50:15.568Z,2.37
2022-10-13T10:52:26.746Z,2.00
2022-10-13T10:54:46.708Z,1.83
2022-10-13T10:57:02.655Z,2.00
2022-10-13T10:59:19.445Z,1.83
2022-10-13T11:01:34.163Z,1.97
2022-10-13T11:03:47.133Z,1.90
2022-10-13T11:06:03.056Z,2.03
2022-10-13T11:08:27.811Z,2.20
2022-10-13T11:10:36.937Z,1.63
2022-10-13T11:13:08.545Z,2.13
2022-10-13T11:15:21.614Z,1.77
2022-10-13T11:17:31.646Z,1.50
2022-10-13T11:19:41.478Z,1.80
2022-10-13T11:22:24.052Z,1.70
2022-10-13T11:24:54.177Z,1.53
2022-10-13T11:27:20.713Z,1.70
2022-10-13T11:29:55.038Z,1.73
2022-10-13T11:32:04.901Z,1.70
2022-10-13T11:34:27.755Z,1.60
2022-10-13T11:36:52.321Z,1.80
2022-10-13T11:39:04.660Z,1.63
2022-10-13T11:41:18.991Z,1.60
2022-10-13T11:43:35.148Z,1.93
2022-10-13T11:45:50.732Z,2.07
2022-10-13T11:48:13.267Z,1.70
2022-10-13T11:50:27.595Z,1.60
2022-10-13T11:52:50.723Z,1.83
2022-10-13T11:55:03.793Z,2.07
2022-10-13T11:57:20.512Z,1.80
2022-10-13T11:59:31.236Z,1.80
2022-10-13T12:01:45.883Z,2.00
2022-10-13T12:03:54.743Z,1.93
2022-10-13T12:06:04.824Z,2.23
2022-10-13T12:08:13.623Z,1.73
2022-10-13T12:10:26.003Z,2.00
2022-10-13T12:12:35.216Z,1.80
2022-10-13T12:14:45.245Z,2.20
2022-10-13T12:16:59.313Z,1.73
2022-10-13T12:19:08.959Z,1.90
2022-10-13T12:21:20.607Z,2.00
2022-10-13T12:23:30.498Z,1.70
2022-10-13T12:25:39.238Z,2.00
2022-10-13T12:27:49.099Z,2.10
2022-10-13T12:29:58.306Z,1.80
2022-10-13T12:32:21.275Z,1.77
2022-10-13T12:34:32.696Z,2.00
2022-10-13T12:36:42.171Z,2.30
2022-10-13T12:38:52.146Z,1.97
2022-10-13T12:41:01.518Z,2.03
2022-10-13T12:43:11.466Z,1.80
2022-10-13T12:45:21.636Z,1.97
2022-10-13T12:47:48.394Z,2.10
2022-10-13T12:50:12.334Z,2.07
2022-10-13T12:52:27.396Z,1.90
2022-10-13T12:54:37.742Z,2.10
2022-10-13T12:56:46.837Z,2.03
2022-10-13T12:58:56.011Z,2.37
2022-10-13T13:01:10.704Z,1.73
2022-10-13T13:03:28.163Z,1.83
2022-10-13T13:05:38.138Z,1.80
2022-10-13T13:07:55.119Z,1.67
2022-10-13T13:10:05.993Z,2.03
2022-10-13T13:12:23.929Z,2.10
2022-10-13T13:14:40.158Z,1.83
2022-10-13T13:17:04.609Z,2.20
2022-10-13T13:19:25.117Z,1.77
2022-10-13T13:21:34.176Z,1.83
2022-10-13T13:23:43.413Z,1.53
2022-10-13T13:26:02.438Z,1.60
2022-10-13T13:28:12.819Z,1.93
2022-10-13T13:30:22.571Z,1.87
2022-10-13T13:32:35.090Z,1.87
2022-10-13T13:34:48.317Z,1.80
2022-10-13T13:36:57.152Z,1.80
2022-10-13T13:39:06.016Z,1.53
2022-10-13T13:41:15.663Z,2.43
2022-10-13T13:43:25.035Z,2.00
2022-10-13T13:45:35.645Z,2.00
2022-10-13T13:47:44.550Z,1.90
2022-10-13T13:49:56.179Z,2.27
2022-10-13T13:52:05.321Z,2.10
2022-10-13T13:54:14.224Z,2.17
2022-10-13T13:56:22.909Z,1.77
2022-10-13T13:58:31.894Z,1.93
2022-10-13T14:00:40.815Z,2.43
2022-10-13T14:02:49.843Z,2.20
2022-10-13T14:05:00.591Z,2.40
2022-10-13T14:07:09.356Z,1.97
2022-10-13T14:09:18.551Z,1.97
2022-10-13T14:11:27.809Z,1.93
2022-10-13T14:13:37.038Z,1.60
2022-10-13T14:15:45.942Z,2.10
2022-10-13T14:17:55.112Z,1.80
2022-10-13T14:20:05.502Z,2.13
2022-10-13T14:22:14.245Z,1.97
2022-10-13T14:24:23.281Z,1.90
2022-10-13T14:26:32.260Z,2.00
2022-10-13T14:28:42.598Z,2.13
2022-10-13T14:30:51.445Z,1.90
2022-10-13T14:33:00.198Z,1.90
2022-10-13T14:35:11.443Z,2.17
2022-10-13T14:37:23.190Z,2.07
2022-10-13T14:39:32.599Z,1.70
2022-10-13T14:41:41.517Z,2.00
2022-10-13T14:43:51.090Z,2.23
2022-10-13T14:46:03.194Z,2.07
2022-10-13T14:48:12.349Z,1.80
2022-10-13T14:50:23.063Z,2.20
2022-10-13T14:52:32.068Z,1.93
2022-10-13T14:54:44.686Z,2.00
2022-10-13T14:56:54.025Z,1.80
2022-10-13T14:59:05.114Z,1.90
2022-10-13T15:01:13.927Z,2.00
2022-10-13T15:03:22.579Z,1.80
2022-10-13T15:05:33.086Z,1.87
2022-10-13T15:07:42.023Z,2.23
2022-10-13T15:09:52.854Z,2.00
2022-10-13T15:12:12.166Z,2.30
2022-10-13T15:14:21.039Z,1.90
2022-10-13T15:16:31.264Z,2.20
2022-10-13T15:18:40.490Z,2.13
2022-10-13T15:20:51.926Z,2.40
2022-10-13T15:23:00.687Z,2.03
2022-10-13T15:25:11.869Z,2.17
2022-10-13T15:27:20.849Z,2.10
2022-10-13T15:29:29.826Z,2.33
2022-10-13T15:31:38.882Z,2.20
2022-10-13T15:33:48.563Z,1.93
2022-10-13T15:35:59.326Z,1.93
2022-10-13T15:38:07.987Z,2.13
2022-10-13T15:40:16.764Z,2.00
2022-10-13T15:42:25.388Z,2.40
2022-10-13T15:44:57.477Z,2.40
2022-10-13T15:47:08.244Z,2.07
2022-10-13T15:49:17.457Z,2.90
2022-10-13T15:51:27.945Z,1.83
2022-10-13T15:53:36.615Z,1.90
2022-10-13T15:55:45.548Z,2.00
2022-10-13T15:57:54.725Z,2.00
2022-10-13T16:00:03.332Z,2.00
2022-10-13T16:02:12.574Z,1.90
2022-10-13T16:04:21.478Z,2.10
2022-10-13T16:06:34.015Z,2.17
2022-10-13T16:08:44.591Z,2.10
2022-10-13T16:10:53.756Z,2.57
2022-10-13T16:13:02.314Z,2.03
2022-10-13T16:15:11.632Z,2.30
2022-10-13T16:17:20.244Z,2.30
2022-10-13T16:19:41.419Z,2.37
2022-10-13T16:21:52.341Z,2.27
2022-10-13T16:24:01.541Z,2.27
2022-10-13T16:26:11.169Z,2.10
2022-10-13T16:28:20.268Z,2.80
2022-10-13T16:30:30.583Z,3.00
2022-10-13T16:32:42.890Z,2.53
2022-10-13T16:34:51.874Z,2.40
2022-10-13T16:37:02.651Z,2.50
2022-10-13T16:39:11.736Z,2.90
2022-10-13T16:41:21.104Z,2.80
2022-10-13T16:43:31.912Z,2.87
2022-10-13T16:45:59.305Z,2.37
2022-10-13T16:48:08.776Z,2.93
2022-10-13T16:50:17.790Z,2.83
2022-10-13T16:52:28.441Z,3.07
2022-10-13T16:54:37.187Z,3.03
2022-10-13T16:56:47.121Z,2.53
2022-10-13T16:58:57.061Z,2.67
2022-10-13T17:01:08.946Z,2.80
2022-10-13T17:03:17.685Z,2.60
2022-10-13T17:05:26.242Z,2.93
2022-10-13T17:07:36.995Z,3.00
2022-10-13T17:09:46.309Z,2.60
2022-10-13T17:11:54.894Z,2.53
2022-10-13T17:14:04.025Z,2.87
2022-10-13T17:16:13.410Z,3.07
2022-10-13T17:18:22.930Z,2.73
2022-10-13T17:20:32.113Z,2.60
2022-10-13T17:22:43.146Z,2.53
2022-10-13T17:24:52.097Z,3.17
2022-10-13T17:27:00.901Z,2.70
2022-10-13T17:29:09.908Z,3.37
2022-10-13T17:31:20.261Z,3.50
2022-10-13T17:33:29.310Z,5.57
2022-10-13T17:35:38.136Z,4.50
2022-10-13T17:37:51.245Z,4.27
2022-10-13T17:39:59.953Z,3.10
2022-10-13T17:42:08.835Z,2.30
2022-10-13T17:44:20.590Z,2.70
2022-10-13T17:46:36.998Z,2.63
2022-10-13T17:48:46.820Z,3.30
2022-10-13T17:50:55.713Z,3.07
2022-10-13T17:53:05.962Z,3.23
2022-10-13T17:55:14.625Z,3.10
2022-10-13T17:57:23.612Z,2.77
2022-10-13T17:59:32.540Z,2.87
2022-10-13T18:01:42.297Z,3.00
2022-10-13T18:03:52.879Z,2.97
2022-10-13T18:06:02.035Z,3.40
2022-10-13T18:08:12.046Z,3.20
2022-10-13T18:10:20.801Z,2.90
2022-10-13T18:12:30.512Z,3.23
2022-10-13T18:14:39.631Z,2.80
2022-10-13T18:16:50.219Z,3.40
2022-10-13T18:18:59.563Z,3.50
2022-10-13T18:21:09.550Z,3.83
2022-10-13T18:23:20.266Z,3.00
2022-10-13T18:25:29.722Z,3.00
2022-10-13T18:27:38.953Z,3.60
2022-10-13T18:29:48.236Z,3.20
2022-10-13T18:31:57.618Z,3.27
2022-10-13T18:34:07.822Z,3.43
2022-10-13T18:36:20.094Z,3.13
2022-10-13T18:38:30.911Z,3.30
2022-10-13T18:40:39.928Z,3.47
2022-10-13T18:42:54.841Z,3.43
2022-10-13T18:45:04.304Z,3.47
2022-10-13T18:47:13.311Z,3.33
2022-10-13T18:49:31.051Z,4.00
2022-10-13T18:51:41.234Z,3.60
2022-10-13T18:53:52.205Z,4.07
2022-10-13T18:56:05.173Z,3.67
2022-10-13T18:58:14.385Z,3.67
2022-10-13T19:00:23.636Z,3.63
2022-10-13T19:02:32.746Z,3.63
2022-10-13T19:04:41.656Z,3.37
2022-10-13T19:06:50.288Z,4.40
2022-10-13T19:09:01.989Z,4.47
2022-10-13T19:11:14.254Z,5.60
2022-10-13T19:13:23.129Z,4.40
2022-10-13T19:15:31.929Z,4.37
2022-10-13T19:17:40.636Z,4.73
2022-10-13T19:19:49.468Z,4.20
2022-10-13T19:21:58.381Z,4.53
2022-10-13T19:24:09.400Z,3.57
2022-10-13T19:26:19.944Z,3.70
2022-10-13T19:28:28.790Z,3.87
2022-10-13T19:30:37.793Z,3.90
2022-10-13T19:32:47.194Z,4.13
2022-10-13T19:34:55.835Z,3.93
2022-10-13T19:37:05.353Z,3.90
2022-10-13T19:39:27.897Z,3.73
2022-10-13T19:41:37.067Z,3.77
2022-10-13T19:43:46.012Z,4.30
2022-10-13T19:45:59.749Z,3.83
2022-10-13T19:48:09.307Z,3.57
2022-10-13T19:50:18.234Z,4.17
2022-10-13T19:52:27.423Z,3.90
2022-10-13T19:54:37.548Z,4.07
2022-10-13T19:56:47.898Z,4.07
2022-10-13T19:58:57.320Z,4.53
2022-10-13T20:01:08.381Z,4.13
2022-10-13T20:03:17.957Z,4.07
2022-10-13T20:05:26.846Z,3.90
2022-10-13T20:07:36.006Z,4.20
2022-10-13T20:09:46.850Z,4.33
2022-10-13T20:11:55.410Z,4.03
2022-10-13T20:14:04.419Z,3.97
2022-10-13T20:16:14.216Z,4.20
2022-10-13T20:18:23.172Z,4.47
2022-10-13T20:20:31.742Z,4.23
2022-10-13T20:22:41.169Z,3.97
2022-10-13T20:24:51.612Z,4.30
2022-10-13T20:27:00.600Z,3.73
2022-10-13T20:29:09.355Z,4.07
2022-10-13T20:31:19.679Z,3.87
2022-10-13T20:33:28.480Z,4.47
2022-10-13T20:35:37.893Z,4.00
2022-10-13T20:37:46.775Z,3.77
2022-10-13T20:39:57.452Z,4.70
2022-10-13T20:42:07.563Z,4.20
2022-10-13T20:44:16.518Z,4.63
2022-10-13T20:46:25.609Z,4.23
2022-10-13T20:48:57.777Z,5.13
2022-10-13T20:51:04.370Z,4.60
2022-10-13T20:53:12.950Z,4.70
2022-10-13T20:55:23.503Z,4.97
2022-10-13T20:57:32.557Z,4.33
2022-10-13T20:59:41.332Z,4.20
2022-10-13T21:01:50.733Z,4.47
2022-10-13T21:03:59.546Z,4.80
2022-10-13T21:06:09.362Z,4.30
2022-10-13T21:08:19.092Z,4.20
2022-10-13T21:10:29.204Z,4.53
2022-10-13T21:12:37.769Z,4.80
2022-10-13T21:14:46.491Z,4.57
2022-10-13T21:16:55.685Z,4.87
2022-10-13T21:19:05.190Z,4.33
2022-10-13T21:21:14.171Z,4.80
2022-10-13T21:23:23.108Z,4.77
2022-10-13T21:25:33.787Z,5.40
2022-10-13T21:27:42.615Z,5.63
2022-10-13T21:29:51.849Z,5.40
2022-10-13T21:32:00.504Z,5.03
2022-10-13T21:34:09.090Z,5.50
2022-10-13T21:36:19.276Z,5.73
2022-10-13T21:38:28.422Z,5.20
2022-10-13T21:40:40.084Z,5.27
2022-10-13T21:42:49.165Z,5.57
2022-10-13T21:44:58.346Z,5.20
2022-10-13T21:47:07.344Z,5.23
2022-10-13T21:49:15.909Z,5.13
2022-10-13T21:51:26.242Z,4.90
2022-10-13T21:53:34.995Z,6.50
2022-10-13T21:55:45.471Z,5.70
2022-10-13T21:57:55.053Z,6.60
2022-10-13T22:00:04.116Z,6.10
2022-10-13T22:02:13.113Z,5.40
2022-10-13T22:04:21.902Z,5.50
2022-10-13T22:06:31.765Z,5.50
2022-10-13T22:08:41.543Z,7.50
2022-10-13T22:10:52.005Z,6.77
2022-10-13T22:13:00.791Z,5.77
2022-10-13T22:15:10.216Z,6.40
2022-10-13T22:17:19.126Z,5.47
2022-10-13T22:19:28.250Z,5.13
2022-10-13T22:21:37.963Z,5.47
2022-10-13T22:23:47.594Z,5.50
2022-10-13T22:25:58.572Z,4.93
2022-10-13T22:28:07.617Z,6.00
2022-10-13T22:30:16.521Z,5.40
2022-10-13T22:32:25.523Z,5.53
2022-10-13T22:34:34.455Z,5.00
2022-10-13T22:36:44.967Z,6.27
2022-10-13T22:38:55.854Z,6.07
2022-10-13T22:41:07.860Z,6.40
2022-10-13T22:43:16.913Z,6.07
2022-10-13T22:45:25.800Z,5.80
2022-10-13T22:47:34.758Z,6.67
2022-10-13T22:49:43.485Z,5.30
2022-10-13T22:51:52.579Z,5.87
2022-10-13T22:54:01.563Z,5.83
2022-10-13T22:56:13.801Z,5.73
2022-10-13T22:58:22.633Z,6.10
2022-10-13T23:00:31.233Z,5.50
2022-10-13T23:02:40.023Z,6.17
2022-10-13T23:04:51.163Z,5.93
2022-10-13T23:07:00.151Z,6.13
2022-10-13T23:09:10.208Z,6.60
2022-10-13T23:11:21.185Z,6.30
2022-10-13T23:13:30.228Z,5.67
2022-10-13T23:15:40.913Z,6.43
2022-10-13T23:17:50.070Z,5.87
2022-10-13T23:19:59.074Z,6.07
2022-10-13T23:22:08.279Z,6.20
2022-10-13T23:24:17.587Z,6.63
2022-10-13T23:26:28.737Z,6.43
2022-10-13T23:28:37.933Z,6.40
2022-10-13T23:30:46.748Z,6.70
2022-10-13T23:32:55.567Z,6.47
2022-10-13T23:35:04.670Z,6.30
2022-10-13T23:37:13.279Z,6.00
2022-10-13T23:39:21.856Z,5.93
2022-10-13T23:41:32.757Z,6.13
2022-10-13T23:43:42.712Z,6.27
2022-10-13T23:45:51.263Z,7.23
2022-10-13T23:47:59.967Z,6.53
2022-10-13T23:50:09.292Z,6.73
2022-10-13T23:52:17.858Z,6.13
2022-10-13T23:54:26.668Z,7.13
2022-10-13T23:56:37.047Z,7.27
2022-10-13T23:58:46.264Z,6.57
